Suhinici, Russia
Current Conditions -  °F | °C
As of 9:30 AM on Thursday 23 Oct 2014 (Local Time) from UUBW Reporting Station
Clear Clear  
Wind Chill:   Ceiling: Unl
Heat Index: 16°   Visibility: 6mi
Dew Point:   Wind: 11mph
Humidity: 68%   Direction: 310°NW
Pressure: 30.24"   Gusts: 22mph
Location:  54.1°N, 35.35°E
Report Text: UUBW 230630Z 31005G10MPS CAVOK M09/M14 Q1024 NOSIG RMK SC055
Loading
Personal Weather Stations






























Interactive Weather Map
Tropical Storm Tracking
New forecast layout! Learn more

10-Day Weather Forecast

Advertisements
Track Severe Weather on mobile